sensor_id;sensor_type;location;lat;lon;timestamp;P1;durP1;ratioP1;P2;durP2;ratioP2
17524;SDS011;40431;52.198;9.902;2023-04-03T00:02:14;4.27;;;3.10;;
17524;SDS011;40431;52.198;9.902;2023-04-03T00:04:41;5.93;;;3.50;;
17524;SDS011;40431;52.198;9.902;2023-04-03T00:07:07;6.03;;;3.33;;
17524;SDS011;40431;52.198;9.902;2023-04-03T00:09:33;3.60;;;3.30;;
17524;SDS011;40431;52.198;9.902;2023-04-03T00:12:01;3.80;;;3.03;;
17524;SDS011;40431;52.198;9.902;2023-04-03T00:14:28;4.40;;;3.17;;
17524;SDS011;40431;52.198;9.902;2023-04-03T00:16:54;3.77;;;3.10;;
17524;SDS011;40431;52.198;9.902;2023-04-03T00:19:21;10.57;;;3.60;;
17524;SDS011;40431;52.198;9.902;2023-04-03T00:21:47;3.37;;;3.07;;
17524;SDS011;40431;52.198;9.902;2023-04-03T00:24:13;2.90;;;2.67;;
17524;SDS011;40431;52.198;9.902;2023-04-03T00:26:40;3.33;;;3.03;;
17524;SDS011;40431;52.198;9.902;2023-04-03T00:29:08;5.00;;;2.83;;
17524;SDS011;40431;52.198;9.902;2023-04-03T00:31:34;3.63;;;2.97;;
17524;SDS011;40431;52.198;9.902;2023-04-03T00:34:00;4.63;;;3.47;;
17524;SDS011;40431;52.198;9.902;2023-04-03T00:36:27;3.47;;;3.17;;
17524;SDS011;40431;52.198;9.902;2023-04-03T00:38:53;2.60;;;2.27;;
17524;SDS011;40431;52.198;9.902;2023-04-03T00:41:20;5.90;;;3.30;;
17524;SDS011;40431;52.198;9.902;2023-04-03T00:43:47;3.37;;;2.83;;
17524;SDS011;40431;52.198;9.902;2023-04-03T00:46:14;5.93;;;3.17;;
17524;SDS011;40431;52.198;9.902;2023-04-03T00:48:41;3.10;;;2.80;;
17524;SDS011;40431;52.198;9.902;2023-04-03T00:51:10;6.00;;;3.47;;
17524;SDS011;40431;52.198;9.902;2023-04-03T00:53:40;4.23;;;3.60;;
17524;SDS011;40431;52.198;9.902;2023-04-03T00:56:12;4.63;;;4.10;;
17524;SDS011;40431;52.198;9.902;2023-04-03T00:58:42;3.53;;;3.23;;
17524;SDS011;40431;52.198;9.902;2023-04-03T01:01:16;3.60;;;3.30;;
17524;SDS011;40431;52.198;9.902;2023-04-03T01:03:47;4.70;;;3.20;;
17524;SDS011;40431;52.198;9.902;2023-04-03T01:06:16;3.77;;;3.47;;
17524;SDS011;40431;52.198;9.902;2023-04-03T01:08:45;3.50;;;3.20;;
17524;SDS011;40431;52.198;9.902;2023-04-03T01:11:15;3.43;;;2.83;;
17524;SDS011;40431;52.198;9.902;2023-04-03T01:13:41;4.57;;;3.33;;
17524;SDS011;40431;52.198;9.902;2023-04-03T01:16:08;3.23;;;2.93;;
17524;SDS011;40431;52.198;9.902;2023-04-03T01:18:37;3.43;;;3.13;;
17524;SDS011;40431;52.198;9.902;2023-04-03T01:21:20;3.40;;;3.20;;
17524;SDS011;40431;52.198;9.902;2023-04-03T01:24:10;5.47;;;3.70;;
17524;SDS011;40431;52.198;9.902;2023-04-03T01:26:45;3.90;;;3.50;;
17524;SDS011;40431;52.198;9.902;2023-04-03T01:29:12;3.50;;;3.20;;
17524;SDS011;40431;52.198;9.902;2023-04-03T01:31:45;4.03;;;3.63;;
17524;SDS011;40431;52.198;9.902;2023-04-03T01:34:16;4.23;;;3.20;;
17524;SDS011;40431;52.198;9.902;2023-04-03T01:36:42;4.13;;;3.83;;
17524;SDS011;40431;52.198;9.902;2023-04-03T01:39:09;5.67;;;3.37;;
17524;SDS011;40431;52.198;9.902;2023-04-03T01:41:36;9.93;;;3.67;;
17524;SDS011;40431;52.198;9.902;2023-04-03T01:44:02;3.80;;;3.03;;
17524;SDS011;40431;52.198;9.902;2023-04-03T01:46:29;4.77;;;3.33;;
17524;SDS011;40431;52.198;9.902;2023-04-03T01:48:57;6.53;;;3.40;;
17524;SDS011;40431;52.198;9.902;2023-04-03T01:51:24;3.97;;;3.57;;
17524;SDS011;40431;52.198;9.902;2023-04-03T01:53:50;4.20;;;3.50;;
17524;SDS011;40431;52.198;9.902;2023-04-03T01:56:17;4.33;;;3.63;;
17524;SDS011;40431;52.198;9.902;2023-04-03T01:58:43;3.77;;;3.57;;
17524;SDS011;40431;52.198;9.902;2023-04-03T02:01:10;3.40;;;3.10;;
17524;SDS011;40431;52.198;9.902;2023-04-03T02:03:36;4.07;;;3.47;;
17524;SDS011;40431;52.198;9.902;2023-04-03T02:06:04;4.50;;;3.23;;
17524;SDS011;40431;52.198;9.902;2023-04-03T02:08:31;3.60;;;3.00;;
17524;SDS011;40431;52.198;9.902;2023-04-03T02:10:57;3.63;;;3.27;;
17524;SDS011;40431;52.198;9.902;2023-04-03T02:13:24;3.77;;;3.47;;
17524;SDS011;40431;52.198;9.902;2023-04-03T02:15:50;3.70;;;3.40;;
17524;SDS011;40431;52.198;9.902;2023-04-03T02:18:17;4.17;;;3.67;;
17524;SDS011;40431;52.198;9.902;2023-04-03T02:20:44;4.90;;;4.47;;
17524;SDS011;40431;52.198;9.902;2023-04-03T02:23:13;4.40;;;3.07;;
17524;SDS011;40431;52.198;9.902;2023-04-03T02:25:40;3.30;;;3.00;;
17524;SDS011;40431;52.198;9.902;2023-04-03T02:28:06;4.00;;;3.47;;
17524;SDS011;40431;52.198;9.902;2023-04-03T02:30:33;8.07;;;3.40;;
17524;SDS011;40431;52.198;9.902;2023-04-03T02:32:59;3.73;;;3.43;;
17524;SDS011;40431;52.198;9.902;2023-04-03T02:35:26;4.13;;;3.47;;
17524;SDS011;40431;52.198;9.902;2023-04-03T02:37:52;7.40;;;3.30;;
17524;SDS011;40431;52.198;9.902;2023-04-03T02:40:20;5.97;;;3.30;;
17524;SDS011;40431;52.198;9.902;2023-04-03T02:42:46;3.20;;;2.90;;
17524;SDS011;40431;52.198;9.902;2023-04-03T02:45:13;4.23;;;2.87;;
17524;SDS011;40431;52.198;9.902;2023-04-03T02:47:39;4.67;;;4.07;;
17524;SDS011;40431;52.198;9.902;2023-04-03T02:50:06;6.10;;;3.97;;
17524;SDS011;40431;52.198;9.902;2023-04-03T02:52:32;4.03;;;3.73;;
17524;SDS011;40431;52.198;9.902;2023-04-03T02:54:59;3.93;;;3.50;;
17524;SDS011;40431;52.198;9.902;2023-04-03T02:57:27;4.43;;;3.10;;
17524;SDS011;40431;52.198;9.902;2023-04-03T02:59:53;3.90;;;3.47;;
17524;SDS011;40431;52.198;9.902;2023-04-03T03:02:19;3.33;;;2.97;;
17524;SDS011;40431;52.198;9.902;2023-04-03T03:04:46;5.40;;;3.63;;
17524;SDS011;40431;52.198;9.902;2023-04-03T03:07:12;3.70;;;3.00;;
17524;SDS011;40431;52.198;9.902;2023-04-03T03:09:39;5.40;;;3.30;;
17524;SDS011;40431;52.198;9.902;2023-04-03T03:12:05;3.50;;;2.63;;
17524;SDS011;40431;52.198;9.902;2023-04-03T03:14:33;4.67;;;3.13;;
17524;SDS011;40431;52.198;9.902;2023-04-03T03:16:59;3.33;;;3.03;;
17524;SDS011;40431;52.198;9.902;2023-04-03T03:19:26;3.40;;;3.10;;
17524;SDS011;40431;52.198;9.902;2023-04-03T03:21:52;5.17;;;3.53;;
17524;SDS011;40431;52.198;9.902;2023-04-03T03:24:19;4.40;;;2.83;;
17524;SDS011;40431;52.198;9.902;2023-04-03T03:26:45;3.73;;;3.30;;
17524;SDS011;40431;52.198;9.902;2023-04-03T03:29:12;3.33;;;3.03;;
17524;SDS011;40431;52.198;9.902;2023-04-03T03:31:39;3.87;;;3.50;;
17524;SDS011;40431;52.198;9.902;2023-04-03T03:34:06;4.00;;;3.70;;
17524;SDS011;40431;52.198;9.902;2023-04-03T03:36:32;7.03;;;3.00;;
17524;SDS011;40431;52.198;9.902;2023-04-03T03:38:59;4.57;;;3.00;;
17524;SDS011;40431;52.198;9.902;2023-04-03T03:41:26;6.43;;;3.40;;
17524;SDS011;40431;52.198;9.902;2023-04-03T03:43:52;4.60;;;3.10;;
17524;SDS011;40431;52.198;9.902;2023-04-03T03:46:18;4.37;;;3.97;;
17524;SDS011;40431;52.198;9.902;2023-04-03T03:48:46;6.23;;;3.83;;
17524;SDS011;40431;52.198;9.902;2023-04-03T03:51:13;6.80;;;4.27;;
17524;SDS011;40431;52.198;9.902;2023-04-03T03:53:39;4.23;;;2.97;;
17524;SDS011;40431;52.198;9.902;2023-04-03T03:56:06;4.30;;;3.90;;
17524;SDS011;40431;52.198;9.902;2023-04-03T03:58:32;3.77;;;3.33;;
17524;SDS011;40431;52.198;9.902;2023-04-03T04:01:00;3.97;;;3.00;;
17524;SDS011;40431;52.198;9.902;2023-04-03T04:03:27;5.10;;;4.03;;
17524;SDS011;40431;52.198;9.902;2023-04-03T04:05:55;3.83;;;3.20;;
17524;SDS011;40431;52.198;9.902;2023-04-03T04:08:21;4.73;;;2.77;;
17524;SDS011;40431;52.198;9.902;2023-04-03T04:10:48;5.67;;;3.70;;
17524;SDS011;40431;52.198;9.902;2023-04-03T04:13:15;5.57;;;3.10;;
17524;SDS011;40431;52.198;9.902;2023-04-03T04:15:42;5.93;;;2.93;;
17524;SDS011;40431;52.198;9.902;2023-04-03T04:18:09;3.73;;;3.23;;
17524;SDS011;40431;52.198;9.902;2023-04-03T04:20:35;4.53;;;4.20;;
17524;SDS011;40431;52.198;9.902;2023-04-03T04:23:03;3.33;;;2.70;;
17524;SDS011;40431;52.198;9.902;2023-04-03T04:25:29;4.13;;;3.73;;
17524;SDS011;40431;52.198;9.902;2023-04-03T04:27:56;4.80;;;3.20;;
17524;SDS011;40431;52.198;9.902;2023-04-03T04:30:22;4.67;;;3.53;;
17524;SDS011;40431;52.198;9.902;2023-04-03T04:32:49;6.40;;;3.53;;
17524;SDS011;40431;52.198;9.902;2023-04-03T04:35:15;4.67;;;4.27;;
17524;SDS011;40431;52.198;9.902;2023-04-03T04:37:42;5.47;;;4.87;;
17524;SDS011;40431;52.198;9.902;2023-04-03T04:40:10;5.80;;;4.70;;
17524;SDS011;40431;52.198;9.902;2023-04-03T04:42:37;5.47;;;3.70;;
17524;SDS011;40431;52.198;9.902;2023-04-03T04:45:04;4.83;;;3.87;;
17524;SDS011;40431;52.198;9.902;2023-04-03T04:47:30;6.10;;;3.87;;
17524;SDS011;40431;52.198;9.902;2023-04-03T04:49:57;4.20;;;3.77;;
17524;SDS011;40431;52.198;9.902;2023-04-03T04:52:23;6.37;;;5.20;;
17524;SDS011;40431;52.198;9.902;2023-04-03T04:54:50;6.17;;;3.87;;
17524;SDS011;40431;52.198;9.902;2023-04-03T04:57:17;4.30;;;3.60;;
17524;SDS011;40431;52.198;9.902;2023-04-03T04:59:44;5.40;;;3.87;;
17524;SDS011;40431;52.198;9.902;2023-04-03T05:02:10;6.70;;;4.37;;
17524;SDS011;40431;52.198;9.902;2023-04-03T05:04:37;5.60;;;3.73;;
17524;SDS011;40431;52.198;9.902;2023-04-03T05:07:04;5.60;;;3.70;;
17524;SDS011;40431;52.198;9.902;2023-04-03T05:09:30;3.60;;;3.30;;
17524;SDS011;40431;52.198;9.902;2023-04-03T05:11:57;6.57;;;3.40;;
17524;SDS011;40431;52.198;9.902;2023-04-03T05:14:24;4.97;;;3.37;;
17524;SDS011;40431;52.198;9.902;2023-04-03T05:16:51;4.90;;;4.40;;
17524;SDS011;40431;52.198;9.902;2023-04-03T05:19:18;4.30;;;3.33;;
17524;SDS011;40431;52.198;9.902;2023-04-03T05:21:45;5.30;;;3.97;;
17524;SDS011;40431;52.198;9.902;2023-04-03T05:24:12;4.53;;;4.13;;
17524;SDS011;40431;52.198;9.902;2023-04-03T05:26:38;5.07;;;4.67;;
17524;SDS011;40431;52.198;9.902;2023-04-03T05:29:05;6.07;;;5.00;;
17524;SDS011;40431;52.198;9.902;2023-04-03T05:31:33;6.23;;;5.63;;
17524;SDS011;40431;52.198;9.902;2023-04-03T05:34:00;4.63;;;4.20;;
17524;SDS011;40431;52.198;9.902;2023-04-03T05:36:26;5.77;;;5.13;;
17524;SDS011;40431;52.198;9.902;2023-04-03T05:38:53;7.17;;;4.90;;
17524;SDS011;40431;52.198;9.902;2023-04-03T05:41:21;4.90;;;4.03;;
17524;SDS011;40431;52.198;9.902;2023-04-03T05:43:48;6.03;;;5.20;;
17524;SDS011;40431;52.198;9.902;2023-04-03T05:46:16;6.23;;;5.73;;
17524;SDS011;40431;52.198;9.902;2023-04-03T05:48:45;6.13;;;3.93;;
17524;SDS011;40431;52.198;9.902;2023-04-03T05:51:13;6.90;;;3.70;;
17524;SDS011;40431;52.198;9.902;2023-04-03T05:53:41;4.63;;;4.23;;
17524;SDS011;40431;52.198;9.902;2023-04-03T05:56:09;6.80;;;4.93;;
17524;SDS011;40431;52.198;9.902;2023-04-03T05:58:35;5.63;;;4.33;;
17524;SDS011;40431;52.198;9.902;2023-04-03T06:01:02;6.70;;;4.50;;
17524;SDS011;40431;52.198;9.902;2023-04-03T06:03:30;5.37;;;4.17;;
17524;SDS011;40431;52.198;9.902;2023-04-03T06:05:58;5.07;;;4.00;;
17524;SDS011;40431;52.198;9.902;2023-04-03T06:08:24;5.57;;;4.60;;
17524;SDS011;40431;52.198;9.902;2023-04-03T06:10:51;4.93;;;3.93;;
17524;SDS011;40431;52.198;9.902;2023-04-03T06:13:17;7.17;;;4.10;;
17524;SDS011;40431;52.198;9.902;2023-04-03T06:15:44;7.73;;;4.00;;
17524;SDS011;40431;52.198;9.902;2023-04-03T06:18:11;5.50;;;4.57;;
17524;SDS011;40431;52.198;9.902;2023-04-03T06:20:38;4.70;;;4.20;;
17524;SDS011;40431;52.198;9.902;2023-04-03T06:23:06;4.63;;;3.90;;
17524;SDS011;40431;52.198;9.902;2023-04-03T06:25:32;5.27;;;3.73;;
17524;SDS011;40431;52.198;9.902;2023-04-03T06:27:59;7.87;;;5.10;;
17524;SDS011;40431;52.198;9.902;2023-04-03T06:30:25;4.67;;;3.87;;
17524;SDS011;40431;52.198;9.902;2023-04-03T06:32:52;6.80;;;4.07;;
17524;SDS011;40431;52.198;9.902;2023-04-03T06:35:18;6.80;;;3.83;;
17524;SDS011;40431;52.198;9.902;2023-04-03T06:37:45;10.50;;;4.33;;
17524;SDS011;40431;52.198;9.902;2023-04-03T06:40:15;6.47;;;4.23;;
17524;SDS011;40431;52.198;9.902;2023-04-03T06:42:46;10.50;;;4.23;;
17524;SDS011;40431;52.198;9.902;2023-04-03T06:45:13;5.50;;;3.57;;
17524;SDS011;40431;52.198;9.902;2023-04-03T06:47:40;5.17;;;3.60;;
17524;SDS011;40431;52.198;9.902;2023-04-03T06:50:07;7.00;;;4.33;;
17524;SDS011;40431;52.198;9.902;2023-04-03T06:52:36;5.13;;;3.40;;
17524;SDS011;40431;52.198;9.902;2023-04-03T06:55:04;3.27;;;2.97;;
17524;SDS011;40431;52.198;9.902;2023-04-03T06:57:33;4.07;;;3.20;;
17524;SDS011;40431;52.198;9.902;2023-04-03T06:59:59;5.90;;;3.27;;
17524;SDS011;40431;52.198;9.902;2023-04-03T07:02:26;3.83;;;3.53;;
17524;SDS011;40431;52.198;9.902;2023-04-03T07:04:52;5.47;;;3.80;;
17524;SDS011;40431;52.198;9.902;2023-04-03T07:07:18;5.93;;;3.20;;
17524;SDS011;40431;52.198;9.902;2023-04-03T07:09:45;7.37;;;4.20;;
17524;SDS011;40431;52.198;9.902;2023-04-03T07:12:13;5.37;;;3.97;;
17524;SDS011;40431;52.198;9.902;2023-04-03T07:14:41;5.13;;;4.37;;
17524;SDS011;40431;52.198;9.902;2023-04-03T07:17:07;6.37;;;3.73;;
17524;SDS011;40431;52.198;9.902;2023-04-03T07:19:34;8.73;;;3.53;;
17524;SDS011;40431;52.198;9.902;2023-04-03T07:22:00;3.67;;;3.37;;
17524;SDS011;40431;52.198;9.902;2023-04-03T07:24:27;4.87;;;3.40;;
17524;SDS011;40431;52.198;9.902;2023-04-03T07:26:53;5.20;;;3.60;;
17524;SDS011;40431;52.198;9.902;2023-04-03T07:29:20;4.03;;;3.63;;
17524;SDS011;40431;52.198;9.902;2023-04-03T07:31:48;4.33;;;3.53;;
17524;SDS011;40431;52.198;9.902;2023-04-03T07:34:15;5.60;;;4.20;;
17524;SDS011;40431;52.198;9.902;2023-04-03T07:36:41;5.30;;;4.13;;
17524;SDS011;40431;52.198;9.902;2023-04-03T07:39:08;4.20;;;3.90;;
17524;SDS011;40431;52.198;9.902;2023-04-03T07:41:34;5.80;;;3.80;;
17524;SDS011;40431;52.198;9.902;2023-04-03T07:44:01;4.13;;;3.37;;
17524;SDS011;40431;52.198;9.902;2023-04-03T07:46:27;3.80;;;3.27;;
17524;SDS011;40431;52.198;9.902;2023-04-03T07:48:55;3.53;;;3.23;;
17524;SDS011;40431;52.198;9.902;2023-04-03T07:51:21;5.27;;;3.47;;
17524;SDS011;40431;52.198;9.902;2023-04-03T07:53:49;4.03;;;3.63;;
17524;SDS011;40431;52.198;9.902;2023-04-03T07:56:15;4.43;;;2.87;;
17524;SDS011;40431;52.198;9.902;2023-04-03T07:58:42;5.80;;;2.87;;
17524;SDS011;40431;52.198;9.902;2023-04-03T08:01:08;4.80;;;3.30;;
17524;SDS011;40431;52.198;9.902;2023-04-03T08:03:35;5.47;;;3.33;;
17524;SDS011;40431;52.198;9.902;2023-04-03T08:06:04;5.37;;;3.63;;
17524;SDS011;40431;52.198;9.902;2023-04-03T08:08:32;3.50;;;3.20;;
17524;SDS011;40431;52.198;9.902;2023-04-03T08:10:59;6.87;;;3.03;;
17524;SDS011;40431;52.198;9.902;2023-04-03T08:13:27;8.47;;;3.73;;
17524;SDS011;40431;52.198;9.902;2023-04-03T08:15:55;4.00;;;3.67;;
17524;SDS011;40431;52.198;9.902;2023-04-03T08:18:22;3.27;;;2.97;;
17524;SDS011;40431;52.198;9.902;2023-04-03T08:20:49;3.53;;;2.97;;
17524;SDS011;40431;52.198;9.902;2023-04-03T08:23:17;4.60;;;3.80;;
17524;SDS011;40431;52.198;9.902;2023-04-03T08:25:44;5.00;;;2.53;;
17524;SDS011;40431;52.198;9.902;2023-04-03T08:28:11;3.23;;;2.77;;
17524;SDS011;40431;52.198;9.902;2023-04-03T08:30:38;3.33;;;2.83;;
17524;SDS011;40431;52.198;9.902;2023-04-03T08:33:05;4.93;;;3.10;;
17524;SDS011;40431;52.198;9.902;2023-04-03T08:35:32;3.10;;;2.80;;
17524;SDS011;40431;52.198;9.902;2023-04-03T08:37:58;3.50;;;2.70;;
17524;SDS011;40431;52.198;9.902;2023-04-03T08:40:27;4.27;;;2.53;;
17524;SDS011;40431;52.198;9.902;2023-04-03T08:42:57;3.03;;;2.70;;
17524;SDS011;40431;52.198;9.902;2023-04-03T08:45:37;4.30;;;3.70;;
17524;SDS011;40431;52.198;9.902;2023-04-03T08:48:12;6.23;;;2.07;;
17524;SDS011;40431;52.198;9.902;2023-04-03T08:50:43;5.63;;;2.80;;
17524;SDS011;40431;52.198;9.902;2023-04-03T08:53:14;4.87;;;2.00;;
17524;SDS011;40431;52.198;9.902;2023-04-03T08:55:45;3.10;;;2.90;;
17524;SDS011;40431;52.198;9.902;2023-04-03T08:58:14;3.40;;;2.27;;
17524;SDS011;40431;52.198;9.902;2023-04-03T09:00:44;3.37;;;2.30;;
17524;SDS011;40431;52.198;9.902;2023-04-03T09:03:14;2.83;;;2.60;;
17524;SDS011;40431;52.198;9.902;2023-04-03T09:05:44;2.93;;;1.80;;
17524;SDS011;40431;52.198;9.902;2023-04-03T09:08:18;3.93;;;2.40;;
17524;SDS011;40431;52.198;9.902;2023-04-03T09:10:50;2.70;;;2.40;;
17524;SDS011;40431;52.198;9.902;2023-04-03T09:13:25;4.30;;;2.40;;
17524;SDS011;40431;52.198;9.902;2023-04-03T09:15:56;4.27;;;2.00;;
17524;SDS011;40431;52.198;9.902;2023-04-03T09:18:23;3.03;;;1.97;;
17524;SDS011;40431;52.198;9.902;2023-04-03T09:20:56;4.37;;;2.60;;
17524;SDS011;40431;52.198;9.902;2023-04-03T09:23:33;2.83;;;2.20;;
17524;SDS011;40431;52.198;9.902;2023-04-03T09:26:11;2.17;;;2.03;;
17524;SDS011;40431;52.198;9.902;2023-04-03T09:28:42;2.17;;;1.90;;
17524;SDS011;40431;52.198;9.902;2023-04-03T09:31:15;4.77;;;2.30;;
17524;SDS011;40431;52.198;9.902;2023-04-03T09:33:49;1.93;;;1.73;;
17524;SDS011;40431;52.198;9.902;2023-04-03T09:39:10;2.30;;;2.10;;
17524;SDS011;40431;52.198;9.902;2023-04-03T09:41:41;3.03;;;2.30;;
17524;SDS011;40431;52.198;9.902;2023-04-03T09:44:20;2.20;;;1.77;;
17524;SDS011;40431;52.198;9.902;2023-04-03T09:46:48;2.23;;;1.93;;
17524;SDS011;40431;52.198;9.902;2023-04-03T09:49:15;4.17;;;2.87;;
17524;SDS011;40431;52.198;9.902;2023-04-03T09:51:43;2.30;;;2.07;;
17524;SDS011;40431;52.198;9.902;2023-04-03T09:57:07;3.60;;;1.80;;
17524;SDS011;40431;52.198;9.902;2023-04-03T09:59:37;5.40;;;1.90;;
17524;SDS011;40431;52.198;9.902;2023-04-03T10:02:18;2.43;;;1.63;;
17524;SDS011;40431;52.198;9.902;2023-04-03T10:04:49;2.33;;;1.60;;
17524;SDS011;40431;52.198;9.902;2023-04-03T10:07:30;2.80;;;2.00;;
17524;SDS011;40431;52.198;9.902;2023-04-03T10:09:59;2.40;;;2.17;;
17524;SDS011;40431;52.198;9.902;2023-04-03T10:12:29;3.47;;;1.80;;
17524;SDS011;40431;52.198;9.902;2023-04-03T10:14:56;2.60;;;2.03;;
17524;SDS011;40431;52.198;9.902;2023-04-03T10:17:26;4.17;;;1.93;;
17524;SDS011;40431;52.198;9.902;2023-04-03T10:20:05;1.77;;;1.63;;
17524;SDS011;40431;52.198;9.902;2023-04-03T10:22:41;2.70;;;1.90;;
17524;SDS011;40431;52.198;9.902;2023-04-03T10:25:15;2.10;;;1.90;;
17524;SDS011;40431;52.198;9.902;2023-04-03T10:27:51;2.23;;;1.80;;
17524;SDS011;40431;52.198;9.902;2023-04-03T10:30:36;1.73;;;1.30;;
17524;SDS011;40431;52.198;9.902;2023-04-03T10:33:18;3.60;;;1.70;;
17524;SDS011;40431;52.198;9.902;2023-04-03T10:35:53;2.57;;;2.27;;
17524;SDS011;40431;52.198;9.902;2023-04-03T10:38:36;4.23;;;1.70;;
17524;SDS011;40431;52.198;9.902;2023-04-03T10:41:15;2.93;;;1.40;;
17524;SDS011;40431;52.198;9.902;2023-04-03T10:43:53;2.07;;;1.77;;
17524;SDS011;40431;52.198;9.902;2023-04-03T10:46:27;1.60;;;1.50;;
17524;SDS011;40431;52.198;9.902;2023-04-03T10:49:03;1.50;;;1.40;;
17524;SDS011;40431;52.198;9.902;2023-04-03T10:51:40;3.23;;;1.60;;
17524;SDS011;40431;52.198;9.902;2023-04-03T10:54:11;1.47;;;1.40;;
17524;SDS011;40431;52.198;9.902;2023-04-03T10:56:40;3.13;;;2.43;;
17524;SDS011;40431;52.198;9.902;2023-04-03T10:59:15;2.37;;;2.00;;
17524;SDS011;40431;52.198;9.902;2023-04-03T11:01:48;3.20;;;1.83;;
17524;SDS011;40431;52.198;9.902;2023-04-03T11:04:18;1.73;;;1.63;;
17524;SDS011;40431;52.198;9.902;2023-04-03T11:06:47;1.90;;;1.70;;
17524;SDS011;40431;52.198;9.902;2023-04-03T11:09:19;2.43;;;1.90;;
17524;SDS011;40431;52.198;9.902;2023-04-03T11:11:53;1.57;;;1.47;;
17524;SDS011;40431;52.198;9.902;2023-04-03T11:14:26;2.10;;;1.90;;
17524;SDS011;40431;52.198;9.902;2023-04-03T11:16:59;1.80;;;1.70;;
17524;SDS011;40431;52.198;9.902;2023-04-03T11:19:34;2.43;;;2.03;;
17524;SDS011;40431;52.198;9.902;2023-04-03T11:22:06;1.97;;;1.60;;
17524;SDS011;40431;52.198;9.902;2023-04-03T11:24:37;3.97;;;2.60;;
17524;SDS011;40431;52.198;9.902;2023-04-03T11:27:08;2.00;;;1.80;;
17524;SDS011;40431;52.198;9.902;2023-04-03T11:29:42;2.80;;;2.60;;
17524;SDS011;40431;52.198;9.902;2023-04-03T11:32:18;2.53;;;1.70;;
17524;SDS011;40431;52.198;9.902;2023-04-03T11:35:10;2.20;;;2.00;;
17524;SDS011;40431;52.198;9.902;2023-04-03T11:37:38;2.57;;;1.77;;
17524;SDS011;40431;52.198;9.902;2023-04-03T11:40:18;1.73;;;1.60;;
17524;SDS011;40431;52.198;9.902;2023-04-03T11:42:48;2.17;;;2.00;;
17524;SDS011;40431;52.198;9.902;2023-04-03T11:45:25;2.13;;;1.73;;
17524;SDS011;40431;52.198;9.902;2023-04-03T11:47:58;2.07;;;1.80;;
17524;SDS011;40431;52.198;9.902;2023-04-03T11:50:41;3.47;;;1.70;;
17524;SDS011;40431;52.198;9.902;2023-04-03T11:53:29;1.90;;;1.80;;
17524;SDS011;40431;52.198;9.902;2023-04-03T12:01:48;3.73;;;2.10;;
17524;SDS011;40431;52.198;9.902;2023-04-03T12:04:17;1.73;;;1.63;;
17524;SDS011;40431;52.198;9.902;2023-04-03T12:06:50;3.47;;;2.33;;
17524;SDS011;40431;52.198;9.902;2023-04-03T12:09:23;2.03;;;1.80;;
17524;SDS011;40431;52.198;9.902;2023-04-03T12:12:26;1.90;;;1.77;;
17524;SDS011;40431;52.198;9.902;2023-04-03T12:14:55;2.23;;;1.97;;
17524;SDS011;40431;52.198;9.902;2023-04-03T12:17:39;2.20;;;2.10;;
17524;SDS011;40431;52.198;9.902;2023-04-03T12:23:06;1.67;;;1.57;;
17524;SDS011;40431;52.198;9.902;2023-04-03T12:25:46;1.70;;;1.60;;
17524;SDS011;40431;52.198;9.902;2023-04-03T12:28:15;2.37;;;1.43;;
17524;SDS011;40431;52.198;9.902;2023-04-03T12:30:42;2.37;;;2.00;;
17524;SDS011;40431;52.198;9.902;2023-04-03T12:33:17;1.90;;;1.80;;
17524;SDS011;40431;52.198;9.902;2023-04-03T12:35:55;2.97;;;2.00;;
17524;SDS011;40431;52.198;9.902;2023-04-03T12:41:29;1.97;;;1.77;;
17524;SDS011;40431;52.198;9.902;2023-04-03T12:44:09;1.63;;;1.53;;
17524;SDS011;40431;52.198;9.902;2023-04-03T12:46:47;3.63;;;1.77;;
17524;SDS011;40431;52.198;9.902;2023-04-03T12:49:22;2.10;;;1.50;;
17524;SDS011;40431;52.198;9.902;2023-04-03T12:51:58;2.67;;;1.63;;
17524;SDS011;40431;52.198;9.902;2023-04-03T12:54:26;4.30;;;1.87;;
17524;SDS011;40431;52.198;9.902;2023-04-03T12:57:08;2.93;;;1.90;;
17524;SDS011;40431;52.198;9.902;2023-04-03T12:59:36;2.73;;;2.10;;
17524;SDS011;40431;52.198;9.902;2023-04-03T13:02:07;5.23;;;1.83;;
17524;SDS011;40431;52.198;9.902;2023-04-03T13:04:45;2.90;;;2.33;;
17524;SDS011;40431;52.198;9.902;2023-04-03T13:07:18;1.63;;;1.53;;
17524;SDS011;40431;52.198;9.902;2023-04-03T13:09:54;1.50;;;1.40;;
17524;SDS011;40431;52.198;9.902;2023-04-03T13:12:21;3.53;;;1.73;;
17524;SDS011;40431;52.198;9.902;2023-04-03T13:14:51;3.03;;;2.07;;
17524;SDS011;40431;52.198;9.902;2023-04-03T13:17:18;2.57;;;2.00;;
17524;SDS011;40431;52.198;9.902;2023-04-03T13:19:47;1.73;;;1.63;;
17524;SDS011;40431;52.198;9.902;2023-04-03T13:22:19;3.93;;;1.87;;
17524;SDS011;40431;52.198;9.902;2023-04-03T13:24:53;2.40;;;1.93;;
17524;SDS011;40431;52.198;9.902;2023-04-03T13:27:21;1.50;;;1.40;;
17524;SDS011;40431;52.198;9.902;2023-04-03T13:29:49;2.13;;;2.00;;
17524;SDS011;40431;52.198;9.902;2023-04-03T13:32:18;1.97;;;1.60;;
17524;SDS011;40431;52.198;9.902;2023-04-03T13:34:49;2.43;;;1.90;;
17524;SDS011;40431;52.198;9.902;2023-04-03T13:37:20;2.70;;;1.90;;
17524;SDS011;40431;52.198;9.902;2023-04-03T13:39:56;2.37;;;2.07;;
17524;SDS011;40431;52.198;9.902;2023-04-03T13:42:25;3.77;;;1.77;;
17524;SDS011;40431;52.198;9.902;2023-04-03T13:45:11;2.07;;;1.87;;
17524;SDS011;40431;52.198;9.902;2023-04-03T13:47:45;2.93;;;1.70;;
17524;SDS011;40431;52.198;9.902;2023-04-03T13:50:15;1.97;;;1.70;;
17524;SDS011;40431;52.198;9.902;2023-04-03T13:52:47;3.07;;;1.90;;
17524;SDS011;40431;52.198;9.902;2023-04-03T13:55:16;3.00;;;1.87;;
17524;SDS011;40431;52.198;9.902;2023-04-03T13:57:50;2.40;;;1.87;;
17524;SDS011;40431;52.198;9.902;2023-04-03T14:00:19;3.70;;;2.30;;
17524;SDS011;40431;52.198;9.902;2023-04-03T14:02:47;3.10;;;2.13;;
17524;SDS011;40431;52.198;9.902;2023-04-03T14:05:15;2.47;;;1.90;;
17524;SDS011;40431;52.198;9.902;2023-04-03T14:07:46;4.23;;;2.10;;
17524;SDS011;40431;52.198;9.902;2023-04-03T14:10:12;2.40;;;1.70;;
17524;SDS011;40431;52.198;9.902;2023-04-03T14:12:39;2.10;;;1.90;;
17524;SDS011;40431;52.198;9.902;2023-04-03T14:15:11;4.53;;;4.13;;
17524;SDS011;40431;52.198;9.902;2023-04-03T14:17:42;2.30;;;1.77;;
17524;SDS011;40431;52.198;9.902;2023-04-03T14:20:10;8.83;;;7.83;;
17524;SDS011;40431;52.198;9.902;2023-04-03T14:22:41;2.47;;;1.67;;
17524;SDS011;40431;52.198;9.902;2023-04-03T14:25:08;4.80;;;4.10;;
17524;SDS011;40431;52.198;9.902;2023-04-03T14:27:35;2.57;;;2.00;;
17524;SDS011;40431;52.198;9.902;2023-04-03T14:30:05;2.87;;;1.77;;
17524;SDS011;40431;52.198;9.902;2023-04-03T14:32:34;2.67;;;2.20;;
17524;SDS011;40431;52.198;9.902;2023-04-03T14:35:01;2.53;;;1.80;;
17524;SDS011;40431;52.198;9.902;2023-04-03T14:37:29;2.10;;;1.87;;
17524;SDS011;40431;52.198;9.902;2023-04-03T14:39:58;2.37;;;1.60;;
17524;SDS011;40431;52.198;9.902;2023-04-03T14:42:27;2.40;;;1.80;;
17524;SDS011;40431;52.198;9.902;2023-04-03T14:44:56;2.10;;;1.90;;
17524;SDS011;40431;52.198;9.902;2023-04-03T14:47:24;1.80;;;1.70;;
17524;SDS011;40431;52.198;9.902;2023-04-03T14:49:52;4.20;;;2.00;;
17524;SDS011;40431;52.198;9.902;2023-04-03T14:52:20;1.93;;;1.80;;
17524;SDS011;40431;52.198;9.902;2023-04-03T14:54:50;4.80;;;1.90;;
17524;SDS011;40431;52.198;9.902;2023-04-03T14:57:19;2.97;;;2.07;;
17524;SDS011;40431;52.198;9.902;2023-04-03T14:59:50;2.13;;;1.93;;
17524;SDS011;40431;52.198;9.902;2023-04-03T15:02:24;3.23;;;2.30;;
17524;SDS011;40431;52.198;9.902;2023-04-03T15:04:52;2.50;;;1.63;;
17524;SDS011;40431;52.198;9.902;2023-04-03T15:07:19;3.47;;;1.90;;
17524;SDS011;40431;52.198;9.902;2023-04-03T15:09:46;3.67;;;1.53;;
17524;SDS011;40431;52.198;9.902;2023-04-03T15:12:12;1.73;;;1.63;;
17524;SDS011;40431;52.198;9.902;2023-04-03T15:14:40;2.87;;;1.90;;
17524;SDS011;40431;52.198;9.902;2023-04-03T15:17:08;2.20;;;2.00;;
17524;SDS011;40431;52.198;9.902;2023-04-03T15:19:40;2.40;;;2.00;;